Time;durP1;ratioP1;P1;durP2;ratioP2;P2;SDS_P1;SDS_P2;PMS_P1;PMS_P2;Temp;Humidity;BMP_temperature;BMP_pressure;BME280_temperature;BME280_humidity;BME280_pressure;Samples;Min_cycle;Max_cycle;Signal;HPM_P1;HPM_P2
2022/03/21 00:02:16;;;;;;;;;;;;;;;21.68;14.20;99621.13;5057691;28;942;-74
2022/03/21 00:04:41;;;;;;;;;;;;;;;21.68;14.20;99612.63;5057742;28;1918;-74
2022/03/21 00:07:06;;;;;;;;;;;;;;;21.39;14.36;99616.69;5057722;28;1024;-74
2022/03/21 00:09:32;;;;;;;;;;;;;;;21.99;13.98;99618.63;5057533;28;959;-74
2022/03/21 00:11:57;;;;;;;;;;;;;;;22.04;13.77;99612.56;5056891;28;874;-74
2022/03/21 00:14:23;;;;;;;;;;;;;;;21.43;14.11;99614.66;5070846;28;1124;-74
2022/03/21 00:16:48;;;;;;;;;;;;;;;21.19;14.25;99611.41;5057254;28;1043;-74
2022/03/21 00:19:14;;;;;;;;;;;;;;;21.45;14.27;99609.41;5057323;28;1017;-74
2022/03/21 00:21:39;;;;;;;;;;;;;;;21.75;13.86;99606.94;5057250;28;931;-74
2022/03/21 00:24:05;;;;;;;;;;;;;;;21.84;13.99;99601.66;5071451;28;1902;-74
2022/03/21 00:26:31;;;;;;;;;;;;;;;21.91;13.95;99605.69;5057455;28;948;-74
2022/03/21 00:28:56;;;;;;;;;;;;;;;21.71;13.92;99603.34;5056855;28;931;-74
2022/03/21 00:31:21;;;;;;;;;;;;;;;21.66;14.09;99598.06;5074676;28;1100;-74
2022/03/21 00:33:47;;;;;;;;;;;;;;;21.41;14.17;99602.97;5074536;28;1205;-74
2022/03/21 00:36:13;;;;;;;;;;;;;;;21.81;13.85;99611.00;5074663;28;1006;-74
2022/03/21 00:38:38;;;;;;;;;;;;;;;22.03;13.78;99599.59;5074424;28;1120;-74
2022/03/21 00:41:04;;;;;;;;;;;;;;;21.47;14.31;99601.31;5034238;28;1494;-74
2022/03/21 00:43:30;;;;;;;;;;;;;;;21.17;14.37;99605.34;5034136;28;1979;-74
2022/03/21 00:45:57;;;;;;;;;;;;;;;21.56;14.25;99594.03;5034517;28;1008;-74
2022/03/21 00:48:22;;;;;;;;;;;;;;;21.80;13.95;99591.56;5034095;28;1005;-74
2022/03/21 00:50:48;;;;;;;;;;;;;;;21.92;13.77;99584.66;5034380;28;991;-74
2022/03/21 00:53:14;;;;;;;;;;;;;;;21.83;13.78;99591.56;5034295;28;1016;-74
2022/03/21 00:55:39;;;;;;;;;;;;;;;21.36;14.33;99595.66;5034493;28;1121;-74
2022/03/21 00:58:05;;;;;;;;;;;;;;;21.22;14.29;99590.78;5034165;28;985;-74
2022/03/21 01:00:31;;;;;;;;;;;;;;;21.53;14.06;99588.38;5014252;28;958;-74
2022/03/21 01:02:57;;;;;;;;;;;;;;;21.99;13.49;99587.47;5014426;28;959;-74
2022/03/21 01:05:22;;;;;;;;;;;;;;;21.63;14.10;99583.91;5014263;28;1993;-74
2022/03/21 01:07:48;;;;;;;;;;;;;;;21.21;14.24;99588.34;5013942;28;995;-74
2022/03/21 01:10:14;;;;;;;;;;;;;;;21.39;14.24;99589.19;5013861;28;1068;-74
2022/03/21 01:12:42;;;;;;;;;;;;;;;21.76;13.95;99582.25;5014157;28;980;-74
2022/03/21 01:15:08;;;;;;;;;;;;;;;21.92;13.70;99593.16;5014259;28;1031;-74
2022/03/21 01:17:33;;;;;;;;;;;;;;;21.85;13.71;99586.28;5015955;28;1124;-74
2022/03/21 01:19:59;;;;;;;;;;;;;;;21.90;13.69;99589.91;5033790;28;1406;-74
2022/03/21 01:22:24;;;;;;;;;;;;;;;21.42;13.89;99584.75;5033871;28;971;-74
2022/03/21 01:24:50;;;;;;;;;;;;;;;21.04;14.54;99578.66;5033105;28;1914;-74
2022/03/21 01:27:15;;;;;;;;;;;;;;;21.69;13.84;99574.59;5033322;28;1134;-74
2022/03/21 01:29:41;;;;;;;;;;;;;;;22.04;13.68;99576.50;5034000;28;958;-74
2022/03/21 01:32:06;;;;;;;;;;;;;;;21.97;13.53;99581.41;5063311;28;933;-74
2022/03/21 01:34:32;;;;;;;;;;;;;;;22.13;13.29;99580.97;5073744;28;1049;-74
2022/03/21 01:36:57;;;;;;;;;;;;;;;21.54;13.99;99578.66;5073424;28;951;-74
2022/03/21 01:39:23;;;;;;;;;;;;;;;21.33;13.90;99582.31;5060220;28;997;-74
2022/03/21 01:41:49;;;;;;;;;;;;;;;21.56;13.97;99584.75;5055967;28;1029;-74
2022/03/21 01:44:14;;;;;;;;;;;;;;;21.70;13.88;99581.84;5055824;28;1914;-74
2022/03/21 01:46:40;;;;;;;;;;;;;;;21.96;13.44;99577.75;5055979;28;1080;-74
2022/03/21 01:49:06;;;;;;;;;;;;;;;21.85;13.68;99582.63;5055891;28;951;-74
2022/03/21 01:51:32;;;;;;;;;;;;;;;21.34;14.28;99578.25;5093182;28;1059;-74
2022/03/21 01:56:42;;;;;;;;;;;;;;;22.01;13.44;99568.00;5093165;28;927;-74
2022/03/21 01:59:08;;;;;;;;;;;;;;;21.79;13.61;99538.94;5072869;28;1603;-73
2022/03/21 02:01:34;;;;;;;;;;;;;;;21.30;13.95;99564.13;5032656;28;1072;-74
2022/03/21 02:03:59;;;;;;;;;;;;;;;21.05;14.12;99575.41;5033031;28;1914;-74
2022/03/21 02:06:28;;;;;;;;;;;;;;;21.92;13.42;99573.31;5033104;28;1007;-74
2022/03/21 02:08:57;;;;;;;;;;;;;;;22.04;13.47;99567.19;5032578;28;939;-74
2022/03/21 02:11:22;;;;;;;;;;;;;;;21.89;13.46;99566.44;5033003;28;1038;-74
2022/03/21 02:13:48;;;;;;;;;;;;;;;22.00;13.59;99570.03;5032754;28;985;-74
2022/03/21 02:16:15;;;;;;;;;;;;;;;21.53;13.76;99571.38;4993466;28;1071;-74
2022/03/21 02:18:41;;;;;;;;;;;;;;;21.50;13.85;99560.84;4993711;28;1093;-74
2022/03/21 02:21:06;;;;;;;;;;;;;;;21.46;14.03;99565.72;4993220;28;1114;-74
2022/03/21 02:23:32;;;;;;;;;;;;;;;21.67;13.83;99570.56;4919962;29;1984;-74
2022/03/21 02:25:57;;;;;;;;;;;;;;;21.79;13.86;99561.59;4916662;29;1001;-74
2022/03/21 02:28:23;;;;;;;;;;;;;;;21.88;13.47;99564.03;4935500;29;995;-74
2022/03/21 02:30:49;;;;;;;;;;;;;;;21.90;13.56;99572.91;4950387;29;996;-74
2022/03/21 02:33:17;;;;;;;;;;;;;;;21.85;13.78;99563.59;5000062;28;947;-74
2022/03/21 02:35:46;;;;;;;;;;;;;;;21.94;13.40;99562.38;4993713;28;997;-74
2022/03/21 02:38:12;;;;;;;;;;;;;;;21.94;13.72;99562.38;4997347;28;1046;-74
2022/03/21 02:40:37;;;;;;;;;;;;;;;21.44;14.19;99556.81;4997495;28;1106;-74
2022/03/21 02:43:03;;;;;;;;;;;;;;;21.10;14.33;99570.56;4997224;28;1050;-74
2022/03/21 02:45:28;;;;;;;;;;;;;;;21.23;13.94;99569.75;4997320;28;1926;-74
2022/03/21 02:47:54;;;;;;;;;;;;;;;21.89;13.94;99562.81;4997278;28;1365;-74
2022/03/21 02:50:30;;;;;;;;;;;;;;;22.13;13.44;99561.13;4996973;28;979;-74
2022/03/21 02:52:56;;;;;;;;;;;;;;;21.70;13.58;99564.84;4988419;28;1009;-74
2022/03/21 02:55:21;;;;;;;;;;;;;;;21.72;13.66;99570.94;5036494;28;940;-74
2022/03/21 02:57:47;;;;;;;;;;;;;;;21.31;14.27;99571.41;5039764;28;1033;-74
2022/03/21 03:00:12;;;;;;;;;;;;;;;21.66;13.87;99568.91;5056547;28;980;-74
2022/03/21 03:02:38;;;;;;;;;;;;;;;21.85;13.73;99565.63;5056507;28;1053;-74
2022/03/21 03:05:04;;;;;;;;;;;;;;;22.09;13.55;99573.25;5056058;28;1898;-74
2022/03/21 03:07:29;;;;;;;;;;;;;;;21.87;13.53;99571.72;5058006;28;946;-74
2022/03/21 03:09:55;;;;;;;;;;;;;;;21.30;14.02;99575.44;5058822;28;974;-74
2022/03/21 03:12:21;;;;;;;;;;;;;;;21.23;14.25;99568.94;5058743;28;937;-75
2022/03/21 03:14:46;;;;;;;;;;;;;;;21.95;13.64;99575.31;5058238;28;826;-74
2022/03/21 03:17:11;;;;;;;;;;;;;;;21.92;13.73;99573.31;5058524;28;1253;-75
2022/03/21 03:19:37;;;;;;;;;;;;;;;22.12;13.59;99562.34;5055646;28;1281;-74
2022/03/21 03:22:03;;;;;;;;;;;;;;;22.06;13.34;99570.44;5055988;28;970;-74
2022/03/21 03:24:28;;;;;;;;;;;;;;;21.50;14.04;99560.84;5055844;28;1976;-74
2022/03/21 03:26:54;;;;;;;;;;;;;;;21.36;14.20;99567.34;5055916;28;1030;-74
2022/03/21 03:29:19;;;;;;;;;;;;;;;21.56;13.90;99564.91;5055820;28;922;-74
2022/03/21 03:31:45;;;;;;;;;;;;;;;21.73;13.66;99564.06;5055867;28;1051;-74
2022/03/21 03:34:10;;;;;;;;;;;;;;;21.85;13.88;99566.44;5055542;28;893;-74
2022/03/21 03:36:36;;;;;;;;;;;;;;;22.02;13.64;99566.78;5055351;28;1057;-74
2022/03/21 03:39:02;;;;;;;;;;;;;;;21.64;13.84;99571.34;5056168;28;1018;-74
2022/03/21 03:41:27;;;;;;;;;;;;;;;21.35;14.19;99576.22;5055582;28;1044;-74
2022/03/21 03:43:53;;;;;;;;;;;;;;;21.14;14.04;99565.69;5055445;28;1905;-74
2022/03/21 03:46:19;;;;;;;;;;;;;;;21.88;13.78;99564.81;5055304;28;1003;-74
2022/03/21 03:48:44;;;;;;;;;;;;;;;22.16;13.25;99565.97;5055199;28;1023;-74
2022/03/21 03:51:10;;;;;;;;;;;;;;;21.91;13.62;99564.00;5053063;28;1067;-74
2022/03/21 03:53:36;;;;;;;;;;;;;;;22.01;13.49;99562.34;5075638;28;1030;-74
2022/03/21 03:56:01;;;;;;;;;;;;;;;21.62;13.91;99568.94;5075513;28;1089;-74
2022/03/21 03:58:27;;;;;;;;;;;;;;;21.21;14.16;99569.34;5058370;28;1015;-74
2022/03/21 04:00:52;;;;;;;;;;;;;;;21.14;14.38;99566.53;5073729;28;978;-74
2022/03/21 04:06:02;;;;;;;;;;;;;;;21.96;13.69;99562.75;5058002;28;1080;-74
2022/03/21 04:08:28;;;;;;;;;;;;;;;21.96;13.57;99565.59;5057396;28;1013;-74
2022/03/21 04:10:53;;;;;;;;;;;;;;;21.93;13.63;99569.28;5057294;28;1066;-74
2022/03/21 04:13:19;;;;;;;;;;;;;;;21.42;14.11;99570.59;5057301;28;937;-74
2022/03/21 04:15:44;;;;;;;;;;;;;;;21.20;14.24;99576.22;5072461;28;1658;-74
2022/03/21 04:18:10;;;;;;;;;;;;;;;21.66;13.96;99574.56;5071626;28;1007;-74
2022/03/21 04:20:37;;;;;;;;;;;;;;;21.94;13.67;99576.53;5057186;28;1526;-74
2022/03/21 04:23:03;;;;;;;;;;;;;;;22.05;13.45;99571.66;5057559;28;1062;-74
2022/03/21 04:25:28;;;;;;;;;;;;;;;21.64;13.69;99577.81;5056928;28;2005;-74
2022/03/21 04:27:54;;;;;;;;;;;;;;;21.52;14.02;99569.75;5057266;28;927;-74
2022/03/21 04:30:19;;;;;;;;;;;;;;;21.59;13.89;99569.75;5094712;28;1056;-74
2022/03/21 04:32:45;;;;;;;;;;;;;;;21.81;13.88;99571.34;5095156;28;1003;-74
2022/03/21 04:35:10;;;;;;;;;;;;;;;22.02;13.69;99575.28;5094955;28;1059;-75
2022/03/21 04:37:36;;;;;;;;;;;;;;;21.77;13.66;99570.53;5094597;28;921;-75
2022/03/21 04:40:02;;;;;;;;;;;;;;;21.27;14.33;99581.88;5074215;28;1164;-74
2022/03/21 04:42:28;;;;;;;;;;;;;;;21.22;14.43;99573.78;5034180;28;981;-74
2022/03/21 04:44:53;;;;;;;;;;;;;;;21.52;14.29;99569.75;5034307;28;1902;-74
2022/03/21 04:47:19;;;;;;;;;;;;;;;21.83;13.86;99571.72;5034418;28;1014;-74
2022/03/21 04:49:45;;;;;;;;;;;;;;;21.96;13.86;99562.75;5034518;28;1182;-74
2022/03/21 04:52:10;;;;;;;;;;;;;;;21.51;14.10;99562.50;5034056;28;1043;-75
2022/03/21 04:54:36;;;;;;;;;;;;;;;21.32;14.41;99566.53;5034347;28;1126;-74
2022/03/21 04:57:01;;;;;;;;;;;;;;;21.33;14.12;99566.13;5033970;28;1002;-74
2022/03/21 04:59:26;;;;;;;;;;;;;;;21.70;14.27;99570.53;5033047;28;1020;-74
2022/03/21 05:01:52;;;;;;;;;;;;;;;21.96;13.96;99559.94;5005229;28;961;-75
2022/03/21 05:04:19;;;;;;;;;;;;;;;22.04;13.94;99567.19;4994462;28;1985;-74
2022/03/21 05:06:46;;;;;;;;;;;;;;;21.50;14.25;99561.69;4994808;28;958;-75
2022/03/21 05:09:11;;;;;;;;;;;;;;;21.33;14.43;99566.13;4994469;28;1038;-74
2022/03/21 05:11:37;;;;;;;;;;;;;;;21.53;14.16;99560.03;4994324;28;1085;-75
2022/03/21 05:14:02;;;;;;;;;;;;;;;21.67;14.29;99560.03;5023668;28;1046;-74
2022/03/21 05:16:28;;;;;;;;;;;;;;;21.95;14.02;99553.47;5035452;28;935;-74
2022/03/21 05:18:53;;;;;;;;;;;;;;;21.67;14.06;99565.69;5053777;28;958;-74
2022/03/21 05:21:19;;;;;;;;;;;;;;;21.51;14.30;99562.50;5053278;28;1062;-74
2022/03/21 05:31:57;;;;;;;;;;;;;;;21.57;14.56;99561.66;5053420;28;954;-74
2022/03/21 05:37:06;;;;;;;;;;;;;;;21.37;14.43;99574.63;5055819;28;908;-74
2022/03/21 05:39:32;;;;;;;;;;;;;;;21.67;14.28;99560.03;5055549;28;1229;-74
2022/03/21 05:41:57;;;;;;;;;;;;;;;21.88;14.17;99567.66;5055779;28;917;-74
2022/03/21 05:44:26;;;;;;;;;;;;;;;22.09;14.02;99559.09;5055547;28;1914;-74
2022/03/21 05:46:51;;;;;;;;;;;;;;;21.57;14.29;99566.53;5055632;28;864;-75
2022/03/21 05:49:17;;;;;;;;;;;;;;;21.33;14.49;99568.97;5055691;28;888;-75
2022/03/21 05:51:42;;;;;;;;;;;;;;;21.49;14.46;99565.72;5055467;28;900;-74
2022/03/21 05:54:10;;;;;;;;;;;;;;;21.75;14.25;99570.09;5055684;28;876;-74
2022/03/21 05:56:36;;;;;;;;;;;;;;;21.99;14.15;99573.28;5055511;28;928;-74
2022/03/21 06:00:20;;;;;;;;;;;;;;;22.00;14.01;99566.41;5055602;28;957;-75
2022/03/21 06:01:47;;;;;;;;;;;;;;;21.54;14.52;99568.13;5054996;28;1055;-74
2022/03/21 06:04:12;;;;;;;;;;;;;;;21.56;14.58;99571.38;5055043;28;1969;-74
2022/03/21 06:06:38;;;;;;;;;;;;;;;21.85;14.18;99554.31;5072776;28;962;-74
2022/03/21 06:09:03;;;;;;;;;;;;;;;21.90;14.19;99555.91;5073170;28;1054;-74
2022/03/21 06:11:29;;;;;;;;;;;;;;;21.88;14.19;99547.81;5073051;28;968;-74
2022/03/21 06:13:54;;;;;;;;;;;;;;;21.45;14.47;99549.94;5072789;28;991;-74
2022/03/21 06:16:20;;;;;;;;;;;;;;;21.32;14.81;99550.38;5072746;28;1068;-74
2022/03/21 06:18:46;;;;;;;;;;;;;;;21.46;14.46;99560.06;5072999;28;996;-74
2022/03/21 06:21:11;;;;;;;;;;;;;;;21.72;14.40;99559.63;5072788;28;1177;-74
2022/03/21 06:23:37;;;;;;;;;;;;;;;21.94;14.23;99551.84;5072753;28;1910;-74
2022/03/21 06:26:03;;;;;;;;;;;;;;;21.68;14.19;99553.13;5073187;28;1080;-74
2022/03/21 06:28:29;;;;;;;;;;;;;;;21.37;14.62;99566.13;5052508;28;1039;-74
2022/03/21 06:30:54;;;;;;;;;;;;;;;21.28;14.75;99566.50;5032654;28;1025;-74
2022/03/21 06:33:23;;;;;;;;;;;;;;;21.64;14.69;99575.00;5016117;28;1049;-74
2022/03/21 06:35:49;;;;;;;;;;;;;;;21.74;14.43;99571.34;4993155;28;1361;-74
2022/03/21 06:38:14;;;;;;;;;;;;;;;21.96;14.04;99576.94;4978652;28;971;-74
2022/03/21 06:40:40;;;;;;;;;;;;;;;21.94;14.21;99570.88;4973954;28;1067;-74
2022/03/21 06:43:05;;;;;;;;;;;;;;;21.61;14.62;99573.00;4973966;28;871;-74
2022/03/21 06:45:32;;;;;;;;;;;;;;;21.30;14.87;99575.44;4973336;28;1906;-75
2022/03/21 06:47:57;;;;;;;;;;;;;;;21.22;14.88;99567.31;4973963;28;1026;-74
2022/03/21 06:50:23;;;;;;;;;;;;;;;21.64;14.60;99577.03;4973569;28;1020;-74
2022/03/21 06:52:49;;;;;;;;;;;;;;;21.75;14.29;99575.78;4973903;28;1043;-74
2022/03/21 06:55:24;;;;;;;;;;;;;;;21.90;14.35;99572.91;4973415;28;1023;-74
2022/03/21 06:57:50;;;;;;;;;;;;;;;21.87;14.11;99580.22;4973880;28;1043;-74
2022/03/21 07:00:16;;;;;;;;;;;;;;;21.45;14.55;99581.09;4989361;28;1030;-74
2022/03/21 07:02:42;;;;;;;;;;;;;;;21.00;15.03;99581.47;4992952;28;1014;-74
2022/03/21 07:05:08;;;;;;;;;;;;;;;21.26;14.76;99588.75;4992633;28;1906;-74
2022/03/21 07:07:34;;;;;;;;;;;;;;;21.61;14.25;99584.31;5031982;28;987;-74
2022/03/21 07:09:59;;;;;;;;;;;;;;;21.94;14.25;99582.22;5072313;28;956;-74
2022/03/21 07:12:25;;;;;;;;;;;;;;;22.11;13.71;99581.38;5072434;28;974;-74
2022/03/21 07:14:50;;;;;;;;;;;;;;;21.83;14.19;99582.25;5072477;28;972;-74
2022/03/21 07:17:19;;;;;;;;;;;;;;;21.46;14.38;99582.72;5072167;28;1129;-75
2022/03/21 07:19:44;;;;;;;;;;;;;;;21.39;14.46;99588.38;5071887;28;1152;-75
2022/03/21 07:22:10;;;;;;;;;;;;;;;21.71;14.02;99583.50;5043938;28;1407;-74
2022/03/21 07:24:35;;;;;;;;;;;;;;;21.95;14.23;99598.00;5045347;28;1914;-75
2022/03/21 07:27:01;;;;;;;;;;;;;;;21.98;14.09;99592.31;5036752;28;1271;-74
2022/03/21 07:29:26;;;;;;;;;;;;;;;21.59;14.44;99592.41;5035647;28;940;-74
2022/03/21 07:31:52;;;;;;;;;;;;;;;21.50;14.45;99589.16;5035883;28;1040;-74
2022/03/21 07:34:17;;;;;;;;;;;;;;;21.32;14.52;99581.50;5035802;28;946;-74
2022/03/21 07:36:43;;;;;;;;;;;;;;;21.61;14.43;99583.53;5035820;28;1030;-74
2022/03/21 07:39:08;;;;;;;;;;;;;;;21.89;13.91;99582.63;5047523;28;1584;-74
2022/03/21 07:41:35;;;;;;;;;;;;;;;22.18;13.86;99584.19;5055275;28;1342;-74
2022/03/21 07:44:01;;;;;;;;;;;;;;;21.54;14.33;99578.66;5055497;28;1905;-74
2022/03/21 07:49:10;;;;;;;;;;;;;;;21.40;14.38;99573.00;5055607;28;948;-74
2022/03/21 07:51:36;;;;;;;;;;;;;;;21.82;14.06;99567.28;5055469;28;1234;-74
2022/03/21 07:54:02;;;;;;;;;;;;;;;22.01;14.02;99577.31;5055273;28;994;-74
2022/03/21 07:56:27;;;;;;;;;;;;;;;22.05;13.65;99574.47;5055293;28;1084;-74
2022/03/21 07:58:53;;;;;;;;;;;;;;;21.67;13.83;99571.34;5056169;28;1079;-74
2022/03/21 08:01:19;;;;;;;;;;;;;;;21.33;14.42;99568.97;5057808;28;972;-74
2022/03/21 08:03:46;;;;;;;;;;;;;;;21.52;14.18;99576.22;5057516;28;1902;-74
2022/03/21 08:06:11;;;;;;;;;;;;;;;21.68;14.34;99572.97;5057326;28;1205;-74
2022/03/21 08:08:37;;;;;;;;;;;;;;;21.99;13.94;99564.78;5071828;28;1029;-74
2022/03/21 08:11:05;;;;;;;;;;;;;;;21.71;14.04;99566.50;5057830;28;1147;-74
2022/03/21 08:13:33;;;;;;;;;;;;;;;21.55;14.05;99563.28;5057415;28;1056;-74
2022/03/21 08:15:59;;;;;;;;;;;;;;;21.25;14.29;99567.34;5057185;28;1007;-75
2022/03/21 08:18:25;;;;;;;;;;;;;;;21.66;14.22;99568.91;5057536;28;907;-74
2022/03/21 08:20:50;;;;;;;;;;;;;;;21.85;13.77;99562.81;5056611;28;1130;-74
2022/03/21 08:23:16;;;;;;;;;;;;;;;21.93;13.88;99566.44;5057026;28;917;-74
2022/03/21 08:25:43;;;;;;;;;;;;;;;21.53;14.20;99562.88;5057121;28;1914;-74
2022/03/21 08:28:09;;;;;;;;;;;;;;;21.34;14.22;99552.78;5057115;28;906;-74
2022/03/21 08:30:35;;;;;;;;;;;;;;;21.50;14.32;99561.69;5057140;28;948;-74
2022/03/21 08:33:02;;;;;;;;;;;;;;;21.76;14.09;99568.09;5056169;28;1072;-74
2022/03/21 08:35:28;;;;;;;;;;;;;;;22.05;13.48;99569.63;5056675;28;1008;-74
2022/03/21 08:37:53;;;;;;;;;;;;;;;21.62;14.02;99557.59;5057003;28;970;-74
2022/03/21 08:40:18;;;;;;;;;;;;;;;21.32;14.39;99563.72;5056838;28;1106;-74
2022/03/21 08:42:45;;;;;;;;;;;;;;;21.29;14.17;99556.78;5056898;28;1025;-74
2022/03/21 08:45:12;;;;;;;;;;;;;;;21.70;13.95;99553.53;5056624;28;1981;-74
2022/03/21 08:47:38;;;;;;;;;;;;;;;22.06;13.75;99559.09;5056494;28;910;-74
2022/03/21 08:50:03;;;;;;;;;;;;;;;22.05;13.75;99563.16;5056846;28;979;-74
2022/03/21 08:52:29;;;;;;;;;;;;;;;21.53;13.89;99560.84;5056750;28;944;-74
2022/03/21 08:54:55;;;;;;;;;;;;;;;21.58;13.89;99573.78;5056502;28;933;-74
2022/03/21 08:57:21;;;;;;;;;;;;;;;21.69;13.79;99551.91;5056382;28;946;-70
2022/03/21 08:59:47;;;;;;;;;;;;;;;22.24;13.54;99554.19;5056671;28;1073;-73
2022/03/21 09:02:13;;;;;;;;;;;;;;;22.29;13.39;99550.13;5055937;28;1486;-73
2022/03/21 09:04:39;;;;;;;;;;;;;;;22.23;13.50;99561.09;5056129;28;1918;-72
2022/03/21 09:07:05;;;;;;;;;;;;;;;22.42;13.21;99556.94;5071060;28;977;-73
2022/03/21 09:09:30;;;;;;;;;;;;;;;22.63;12.81;99561.66;5056243;28;955;-73
2022/03/21 09:11:57;;;;;;;;;;;;;;;22.59;13.03;99560.91;5056189;28;843;-73
2022/03/21 09:14:22;;;;;;;;;;;;;;;22.43;13.12;99552.06;5056167;28;1087;-73
2022/03/21 09:16:50;;;;;;;;;;;;;;;22.30;13.32;99557.41;5056016;28;953;-73
2022/03/21 09:19:16;;;;;;;;;;;;;;;22.28;13.33;99559.84;5056487;28;1068;-74
2022/03/21 09:21:41;;;;;;;;;;;;;;;21.92;13.58;99559.97;5056280;28;908;-74
2022/03/21 09:24:06;;;;;;;;;;;;;;;21.79;13.66;99555.94;5055828;28;1906;-74
2022/03/21 09:26:32;;;;;;;;;;;;;;;21.73;13.60;99549.88;5056225;28;914;-74
2022/03/21 09:29:02;;;;;;;;;;;;;;;21.66;13.80;99558.41;5056216;28;826;-74
2022/03/21 09:31:28;;;;;;;;;;;;;;;21.58;13.93;99560.44;5073220;28;1075;-74
2022/03/21 09:33:54;;;;;;;;;;;;;;;21.59;13.77;99564.06;5073163;28;863;-74
2022/03/21 09:36:19;;;;;;;;;;;;;;;21.53;14.15;99543.84;5073683;28;1027;-74
2022/03/21 09:38:45;;;;;;;;;;;;;;;22.31;13.06;99547.66;5073015;28;1130;-74
2022/03/21 09:41:12;;;;;;;;;;;;;;;22.46;13.08;99556.91;5073390;28;958;-74
2022/03/21 09:43:39;;;;;;;;;;;;;;;22.29;13.15;99548.09;5073242;28;935;-74
2022/03/21 09:46:04;;;;;;;;;;;;;;;21.76;13.50;99551.09;5072918;28;1902;-74
2022/03/21 09:48:30;;;;;;;;;;;;;;;21.53;13.80;99560.03;5056675;28;969;-72
2022/03/21 09:50:56;;;;;;;;;;;;;;;21.77;13.76;99547.84;5033110;28;1009;-72
2022/03/21 09:53:22;;;;;;;;;;;;;;;22.15;13.23;99541.69;5032904;28;1005;-73
2022/03/21 09:55:48;;;;;;;;;;;;;;;22.35;13.26;99551.31;5016586;28;1028;-73
2022/03/21 09:58:13;;;;;;;;;;;;;;;22.52;13.20;99549.59;5033181;28;1091;-73
2022/03/21 10:00:42;;;;;;;;;;;;;;;22.61;12.99;99538.59;5032984;28;821;-73
2022/03/21 10:03:07;;;;;;;;;;;;;;;22.02;13.35;99529.94;5032874;28;1000;-73
2022/03/21 10:05:33;;;;;;;;;;;;;;;21.73;13.44;99535.72;5032979;28;1973;-74
2022/03/21 10:08:17;;;;;;;;;;;;;;;21.56;13.63;99525.25;5032528;28;1232;-74
2022/03/21 10:10:52;;;;;;;;;;;;;;;22.17;13.29;99523.03;5031174;28;1524;-74
2022/03/21 10:13:18;;;;;;;;;;;;;;;22.45;13.21;99538.28;5010385;28;1372;-74
2022/03/21 10:15:43;;;;;;;;;;;;;;;22.58;13.08;99528.06;5010417;28;1414;-74
2022/03/21 10:18:10;;;;;;;;;;;;;;;21.77;13.52;99524.38;4992871;28;1242;-74
2022/03/21 10:20:36;;;;;;;;;;;;;;;21.49;14.11;99513.94;4993237;28;1340;-74
2022/03/21 10:23:15;;;;;;;;;;;;;;;21.72;13.87;99519.94;5012254;28;1118;-74
2022/03/21 10:25:40;;;;;;;;;;;;;;;22.24;13.28;99514.50;5012760;28;1984;-74
2022/03/21 10:28:06;;;;;;;;;;;;;;;22.38;13.20;99507.13;5013167;28;1029;-74
2022/03/21 10:30:31;;;;;;;;;;;;;;;22.46;13.24;99503.03;5013036;28;1094;-74
2022/03/21 10:32:57;;;;;;;;;;;;;;;21.97;13.73;99510.56;5012736;28;953;-74
2022/03/21 10:35:29;;;;;;;;;;;;;;;21.60;13.62;99509.03;5012844;28;1023;-74
2022/03/21 10:37:58;;;;;;;;;;;;;;;21.46;13.87;99506.25;4973727;28;1007;-74
2022/03/21 10:40:23;;;;;;;;;;;;;;;21.87;13.87;99495.22;4974048;28;1036;-73
2022/03/21 10:42:55;;;;;;;;;;;;;;;22.30;13.51;99503.53;4973900;28;1046;-74
2022/03/21 10:45:22;;;;;;;;;;;;;;;22.60;13.07;99503.75;4937932;28;1986;-74
2022/03/21 10:47:51;;;;;;;;;;;;;;;22.51;13.03;99499.75;4935157;29;943;-74
2022/03/21 10:50:29;;;;;;;;;;;;;;;21.85;13.71;99498.44;5011127;28;1130;-74
2022/03/21 10:53:06;;;;;;;;;;;;;;;21.64;13.98;99490.00;5012750;28;1056;-74
2022/03/21 10:55:32;;;;;;;;;;;;;;;21.99;13.69;99479.75;5012613;28;991;-74
2022/03/21 10:57:57;;;;;;;;;;;;;;;22.48;13.44;99483.56;5031243;28;958;-74
2022/03/21 11:00:23;;;;;;;;;;;;;;;22.59;12.89;99472.97;5016340;28;1011;-74
2022/03/21 11:03:03;;;;;;;;;;;;;;;22.08;13.62;99478.09;5015861;28;1156;-74
2022/03/21 11:05:30;;;;;;;;;;;;;;;21.78;13.73;99475.81;5011368;28;1911;-74
2022/03/21 11:07:55;;;;;;;;;;;;;;;21.66;13.96;99473.44;5019648;28;1073;-74
2022/03/21 11:10:21;;;;;;;;;;;;;;;22.10;13.61;99461.50;5057220;28;1387;-74
2022/03/21 11:12:47;;;;;;;;;;;;;;;22.46;13.16;99457.66;5075619;28;1260;-74
2022/03/21 11:15:13;;;;;;;;;;;;;;;22.58;13.29;99451.47;5035944;28;1203;-74
2022/03/21 11:17:38;;;;;;;;;;;;;;;22.04;13.64;99465.16;5035964;28;998;-74
2022/03/21 11:20:06;;;;;;;;;;;;;;;21.66;13.73;99467.78;5035633;28;1061;-74
2022/03/21 11:22:32;;;;;;;;;;;;;;;21.65;13.81;99466.13;5036135;28;954;-74
2022/03/21 11:25:02;;;;;;;;;;;;;;;22.35;13.21;99452.84;5015933;28;1976;-74
2022/03/21 11:27:45;;;;;;;;;;;;;;;22.55;12.96;99449.47;5000017;28;1028;-73
2022/03/21 11:30:29;;;;;;;;;;;;;;;22.75;13.10;99452.56;5016125;28;943;-74
2022/03/21 11:33:12;;;;;;;;;;;;;;;21.93;13.67;99431.22;5015640;28;1114;-74
2022/03/21 11:35:38;;;;;;;;;;;;;;;21.54;14.10;99437.03;5015966;28;1008;-74
2022/03/21 11:38:21;;;;;;;;;;;;;;;21.60;14.11;99446.72;4996426;28;957;-74
2022/03/21 11:40:47;;;;;;;;;;;;;;;22.16;13.63;99439.19;4995384;28;1297;-74
2022/03/21 11:43:18;;;;;;;;;;;;;;;22.46;13.05;99440.63;4995374;28;1230;-74
2022/03/21 11:45:44;;;;;;;;;;;;;;;22.49;13.02;99434.13;4995442;28;1903;-74
2022/03/21 11:48:18;;;;;;;;;;;;;;;21.78;13.72;99436.13;4992868;28;1339;-74
2022/03/21 11:50:47;;;;;;;;;;;;;;;21.59;14.10;99433.78;4995293;28;1612;-74
2022/03/21 11:53:13;;;;;;;;;;;;;;;21.65;14.07;99425.66;5007003;28;1211;-74
2022/03/21 11:55:44;;;;;;;;;;;;;;;22.09;13.68;99428.69;5022258;28;1305;-74
2022/03/21 11:58:22;;;;;;;;;;;;;;;22.38;13.44;99422.84;5013615;28;1277;-74
2022/03/21 12:01:05;;;;;;;;;;;;;;;22.58;13.03;99425.94;5034937;28;1396;-73
2022/03/21 12:03:31;;;;;;;;;;;;;;;21.81;13.74;99418.31;5034416;28;1501;-74
2022/03/21 12:05:56;;;;;;;;;;;;;;;21.57;14.10;99422.06;5035040;28;1925;-74
2022/03/21 12:08:35;;;;;;;;;;;;;;;21.95;13.62;99419.44;5034645;28;1182;-74
2022/03/21 12:11:00;;;;;;;;;;;;;;;22.34;13.21;99417.22;5034804;28;1543;-74
2022/03/21 12:13:26;;;;;;;;;;;;;;;22.53;13.20;99417.88;5034975;28;1014;-74
2022/03/21 12:15:51;;;;;;;;;;;;;;;21.95;13.53;99416.63;5046561;28;1657;-74
2022/03/21 12:18:17;;;;;;;;;;;;;;;21.61;13.98;99414.38;5053745;28;1479;-74
2022/03/21 12:20:49;;;;;;;;;;;;;;;21.71;13.92;99416.34;5033735;28;1518;-73
2022/03/21 12:23:25;;;;;;;;;;;;;;;22.08;13.61;99409.25;5034487;28;957;-74
2022/03/21 12:25:51;;;;;;;;;;;;;;;22.33;13.26;99409.94;5034646;28;1975;-74
2022/03/21 12:31:27;;;;;;;;;;;;;;;21.90;13.60;99406.53;5034732;28;1019;-74
2022/03/21 12:33:52;;;;;;;;;;;;;;;21.64;14.02;99407.88;5034757;28;1077;-74
2022/03/21 12:36:31;;;;;;;;;;;;;;;21.79;13.82;99403.75;5034757;28;914;-73
2022/03/21 12:38:56;;;;;;;;;;;;;;;22.34;13.36;99405.06;5033512;28;1791;-74
2022/03/21 12:41:22;;;;;;;;;;;;;;;22.49;13.04;99405.78;4984331;28;1232;-74
2022/03/21 12:43:50;;;;;;;;;;;;;;;22.39;13.15;99406.66;5006029;28;1512;-74
2022/03/21 12:46:18;;;;;;;;;;;;;;;21.81;13.46;99397.66;5025716;28;1910;-74
2022/03/21 12:48:48;;;;;;;;;;;;;;;21.45;13.91;99400.69;5042706;28;1755;-74
2022/03/21 12:51:15;;;;;;;;;;;;;;;22.02;13.70;99405.22;5043961;28;1272;-74
2022/03/21 12:53:43;;;;;;;;;;;;;;;22.41;12.97;99401.38;5011015;28;1868;-74
2022/03/21 12:56:08;;;;;;;;;;;;;;;22.54;13.19;99402.50;5013475;28;1325;-74
2022/03/21 12:58:35;;;;;;;;;;;;;;;22.07;13.44;99384.94;5013279;28;1494;-74
2022/03/21 13:01:02;;;;;;;;;;;;;;;21.66;13.71;99388.44;4994570;28;948;-74
2022/03/21 13:03:27;;;;;;;;;;;;;;;21.54;14.11;99394.56;4974965;28;1565;-74
2022/03/21 13:11:24;;;;;;;;;;;;;;;22.44;13.29;99389.19;4955636;29;938;-74
2022/03/21 13:13:53;;;;;;;;;;;;;;;22.63;13.05;99378.06;4955454;29;1132;-74
2022/03/21 13:16:20;;;;;;;;;;;;;;;21.79;13.66;99381.09;4958388;28;1060;-74
2022/03/21 13:18:45;;;;;;;;;;;;;;;21.54;14.08;99388.91;4974912;28;970;-74
2022/03/21 13:21:11;;;;;;;;;;;;;;;21.76;14.07;99387.59;4935577;29;1103;-74
2022/03/21 13:23:37;;;;;;;;;;;;;;;22.17;13.52;99381.28;4937437;29;1054;-73
2022/03/21 13:26:22;;;;;;;;;;;;;;;22.52;13.40;99370.88;4922066;29;1984;-74